OIFS  Shahrekord  Airport

Shahrekord, Iran

Add Bookmark
ICAO OIFS
IATA CQD
Type Airport
Status Operational
Latitude
32° 17' 49" N
32.297199
Longitude
50° 50' 31" E
50.842201
Local (GMT +3.5 ) UTC
Sep 25, 2016 10:37 am Sep 25, 2016 07:07
Sunrise-Sunset Local UTC
Begin Civil Twilight 05:31 am 02:01
Sunrise 05:55 am 02:25
Sunset 06:00 pm 14:30
End Civil Twilight 06:24 pm 14:54
VFR
VFR
MVFR
MVFR
IFR
IFR
LIFR
LIFR
Unknown
Unavailable

Current Weather

METAR Observed VFR
OIFS 250600Z 32002KT CAVOK 22/M04 Q1020 Sun, Sep 25, 2016 @ 06:00 UTC
(1 Hour, 7 Minutes ago)
Visual Flight Rules
Wind Visibility Conditions
320° at 2 knots (4 kph) 10 km or more
  • No significant weather
Temperatures Readings Precipitation
Current Temp
22°C
72°F
Dewpoint
-4°C
25°F
Humidity 17%
Altimeter 30.12" Hg
Sea Level Pressure 1,020 mb
Field Elevation
2,078 m
6,818 ft
None Recorded
-
-

CheckWX.com is intended as a tool to help pilots better visualize weather data. It is not intended as a substitute for an official weather briefing obtained from a Flight Service Station. CheckWX.com does not meet the FAA requirements for an official pre-flight weather briefing. Therefore, it's important that pilots still call and obtain an official FSS pre-flight weather briefing.

© 2007-2016 CheckWX.com
07:07:14 UTC